Portada
METAR-TAF:

METAR-TAF

Aeropuertos :

Aeropuerto Internacional de Multan

Multan, Pakistán

latitud: 30-12-12N, longitud: 71-25-09E, altitud: 122 m

Observación

El informe se hizo hace 36 minutos, a las 15:00 UTC
Viento 4 kt del sureste
Temperatura 23°C
Humedad 36%
Presión 1006 hPa
Visibilidad: 5000 m
calima

METAR: OPMT 271500Z 13004KT 5000 HZ NSC 23/07 Q1006 NOSIG

Hora: 20:36 (15:36 UTC)

Pronóstico

El informe se hizo hace 5 horas y 51 minutos, a las 09:45 UTC
Pronóstico válido del 27 a las 12 UTC al 28 a las 06 UTC
Viento 10 kt del noroeste
Visibilidad: 4000 m
Nubes dispersas a una altura de 12000 ft
humo
Probabilidad 30% :
Temporalmente
del 28 a las 01 UTC al 28 a las 05 UTC
Viento kt del norte
Visibilidad: 1500 m
Escasas nubes a una altura de 12000 ft
neblina

TAF: OPMT 270945Z 2712/2806 31010KT 4000 FU SCT120 TN16/2801Z PROB30 TEMPO 2801/2805 00000KT 1500 BR FEW120

Observaciones y pronósticos meteorológicos de más de 4000 aeropuertos (mensajes METAR y TAF).

Los puntos amarillos y rojos representan las estaciones disponibles.

Ponga el ratón en el punto deseado para ver el nombre de la estación.

Haga clic para ver las observaciones y los pronósticos meteorológicos.

Para cambiar el mapa : haga clic en los botones verdes con una cruz de color negro para hacer un zoom, en el botón verde con un guión para alejar o en las flechas verdes para mapas adyacentes.


METAR-TAF: